フェニックス の空港の天気 - METARとTAF

フェニックス・スカイハーバー国際空港 ( KPHX / PHX ) - アメリカ アリゾナ州フェニックス
飛行場実況気象(Metar)
観測時間10/16 00:51 MST (10/16 07:51 UTC)
風向・風速静穏 0m/s
視程10km以上
天気現象
なし
気温22.8℃
湿度37%
気圧1011.6hPa
METARKPHX 160751Z 00000KT 10SM CLR 23/07 A2992 RMK AO2 SLP116 T02280072
過去の天気等 Google飛行場航空写真 Wunderground天気予報

過去48時間のMETAR

飛行場予報(TAF)
発表時間: 10/15 22:20 MST (10/16 05:20 UTC)
予報対象時間: 15日23時 MST ~ 17日5時 MST
風向・風速不定 2m/s
視程10km以上
なし
16日3時 MST から
風向・風速東 3m/s
視程10km以上
なし
16日10時 MST から
風向・風速東 5m/s
視程10km以上
少しの雲 雲底高度 7620m
16日15時 MST から
風向・風速東 3m/s
視程10km以上
少しの雲 雲底高度 7620m
KPHX 160520Z 1606/1712 VRB03KT P6SM SKC
FM161000 09006KT P6SM SKC
FM161700 10010KT P6SM FEW250
FM162200 08006KT P6SM FEW250